createdAt,value
2018-03-18T00:01:24.637Z,85.00
2018-03-18T00:03:53.681Z,85.10
2018-03-18T00:06:21.992Z,85.00
2018-03-18T00:08:50.363Z,85.50
2018-03-18T00:11:18.640Z,87.70
2018-03-18T00:13:46.917Z,86.90
2018-03-18T00:16:15.288Z,86.90
2018-03-18T00:18:43.570Z,89.90
2018-03-18T00:21:11.832Z,90.60
2018-03-18T00:23:40.140Z,90.70
2018-03-18T00:26:08.504Z,90.60
2018-03-18T00:28:36.792Z,87.40
2018-03-18T00:31:05.159Z,90.50
2018-03-18T00:33:33.437Z,90.40
2018-03-18T00:36:01.716Z,91.00
2018-03-18T00:38:30.006Z,91.10
2018-03-18T00:40:59.781Z,90.00
2018-03-18T00:43:28.095Z,90.00
2018-03-18T00:45:56.361Z,90.80
2018-03-18T00:48:24.647Z,90.80
2018-03-18T00:50:54.447Z,90.90
2018-03-18T00:53:22.723Z,90.90
2018-03-18T00:55:51.020Z,92.10
2018-03-18T00:58:19.294Z,93.20
2018-03-18T01:00:47.580Z,91.70
2018-03-18T01:03:16.616Z,93.30
2018-03-18T01:05:44.915Z,93.30
2018-03-18T01:08:13.184Z,92.50
2018-03-18T01:10:41.472Z,92.50
2018-03-18T01:13:09.759Z,91.70
2018-03-18T01:15:38.064Z,90.90
2018-03-18T01:18:06.328Z,91.50
2018-03-18T01:20:35.387Z,90.10
2018-03-18T01:23:03.673Z,90.10
2018-03-18T01:25:31.967Z,90.90
2018-03-18T01:28:00.231Z,92.10
2018-03-18T01:30:28.507Z,93.40
2018-03-18T01:32:56.790Z,90.60
2018-03-18T01:35:25.075Z,90.90
2018-03-18T01:37:53.356Z,91.90
2018-03-18T01:40:21.625Z,93.00
2018-03-18T01:42:49.905Z,92.20
2018-03-18T01:45:18.183Z,92.50
2018-03-18T01:47:46.478Z,92.60
2018-03-18T01:50:14.761Z,93.20
2018-03-18T01:55:39.522Z,89.90
2018-03-18T01:58:07.816Z,90.20
2018-03-18T02:00:36.092Z,91.40
2018-03-18T02:03:04.344Z,91.10
2018-03-18T02:05:32.632Z,90.90
2018-03-18T02:08:00.905Z,90.20
2018-03-18T02:10:29.194Z,93.50
2018-03-18T02:12:57.460Z,90.30
2018-03-18T02:15:25.773Z,91.00
2018-03-18T02:17:54.024Z,91.10
2018-03-18T02:20:22.310Z,90.70
2018-03-18T02:22:50.587Z,89.40
2018-03-18T02:25:18.884Z,87.50
2018-03-18T02:27:47.148Z,89.90
2018-03-18T02:30:15.429Z,84.70
2018-03-18T02:32:43.726Z,84.40
2018-03-18T02:35:12.319Z,86.50
2018-03-18T02:37:40.607Z,87.60
2018-03-18T02:40:09.644Z,87.50
2018-03-18T02:42:37.932Z,87.40
2018-03-18T02:45:06.211Z,88.90
2018-03-18T02:47:34.505Z,89.10
2018-03-18T02:50:02.871Z,88.50
2018-03-18T02:52:31.146Z,90.00
2018-03-18T02:54:59.435Z,86.00
2018-03-18T02:57:27.704Z,85.90
2018-03-18T02:59:56.092Z,88.60
2018-03-18T03:02:24.359Z,88.70
2018-03-18T03:04:52.648Z,90.20
2018-03-18T03:07:20.935Z,91.10
2018-03-18T03:09:50.031Z,90.20
2018-03-18T03:12:18.298Z,90.20
2018-03-18T03:14:46.585Z,90.30
2018-03-18T03:17:14.895Z,91.10
2018-03-18T03:19:43.180Z,91.00
2018-03-18T03:22:11.455Z,90.90
2018-03-18T03:24:39.726Z,91.30
2018-03-18T03:27:08.010Z,90.80
2018-03-18T03:29:36.341Z,91.50
2018-03-18T03:32:04.646Z,92.60
2018-03-18T03:34:33.687Z,91.80
2018-03-18T03:37:01.980Z,91.80
2018-03-18T03:39:30.248Z,91.40
2018-03-18T03:41:58.549Z,91.90
2018-03-18T03:44:26.826Z,91.70
2018-03-18T03:46:55.076Z,93.10
2018-03-18T03:49:23.369Z,91.10
2018-03-18T03:51:51.632Z,93.20
2018-03-18T03:54:19.928Z,93.20
2018-03-18T03:56:48.206Z,93.40
2018-03-18T03:59:16.484Z,94.10
2018-03-18T04:01:44.758Z,94.70
2018-03-18T04:04:13.085Z,95.30
2018-03-18T04:06:41.363Z,94.50
2018-03-18T04:09:09.684Z,95.80
2018-03-18T04:11:37.984Z,96.00
2018-03-18T04:14:06.242Z,96.00
2018-03-18T04:16:34.544Z,96.90
2018-03-18T04:19:02.835Z,96.50
2018-03-18T04:21:31.927Z,99.20
2018-03-18T04:24:00.264Z,99.20
2018-03-18T04:26:28.539Z,98.30
2018-03-18T04:28:56.815Z,98.50
2018-03-18T04:31:25.215Z,97.80
2018-03-18T04:33:53.496Z,99.60
2018-03-18T04:36:21.786Z,98.90
2018-03-18T04:38:50.061Z,99.70
2018-03-18T04:41:18.423Z,99.90
2018-03-18T04:43:46.696Z,99.90
2018-03-18T04:46:14.987Z,99.00
2018-03-18T04:48:43.254Z,99.70
2018-03-18T04:51:11.561Z,99.90
2018-03-18T04:53:40.590Z,99.90
2018-03-18T04:56:08.876Z,99.90
2018-03-18T04:58:37.157Z,99.90
2018-03-18T05:01:05.469Z,99.90
2018-03-18T05:03:33.749Z,99.90
2018-03-18T05:06:02.048Z,99.90
2018-03-18T05:08:31.084Z,99.90
2018-03-18T05:10:59.371Z,99.90
2018-03-18T05:13:27.661Z,99.90
2018-03-18T05:15:55.923Z,99.90
2018-03-18T05:18:24.222Z,99.90
2018-03-18T05:20:52.508Z,99.90
2018-03-18T05:23:20.872Z,99.90
2018-03-18T05:25:49.148Z,99.90
2018-03-18T05:28:17.441Z,99.90
2018-03-18T05:30:45.813Z,99.90
2018-03-18T05:33:14.076Z,99.90
2018-03-18T05:35:42.365Z,99.90
2018-03-18T05:38:11.409Z,99.90
2018-03-18T05:40:39.699Z,99.90
2018-03-18T05:43:07.981Z,99.90
2018-03-18T05:45:36.264Z,99.90
2018-03-18T05:48:04.540Z,99.90
2018-03-18T05:50:32.839Z,99.90
2018-03-18T05:53:01.106Z,99.90
2018-03-18T05:55:29.411Z,99.90
2018-03-18T05:57:57.670Z,99.90
2018-03-18T06:00:26.032Z,99.90
2018-03-18T06:02:54.307Z,99.90
2018-03-18T06:05:22.711Z,99.90
2018-03-18T06:07:50.986Z,99.90
2018-03-18T06:10:19.282Z,99.90
2018-03-18T06:12:47.557Z,99.90
2018-03-18T06:15:15.841Z,99.90
2018-03-18T06:17:44.888Z,99.90
2018-03-18T06:20:13.179Z,99.90
2018-03-18T06:22:41.494Z,99.90
2018-03-18T06:25:10.536Z,99.90
2018-03-18T06:27:38.826Z,99.90
2018-03-18T06:30:07.102Z,99.90
2018-03-18T06:32:35.472Z,99.90
2018-03-18T06:35:03.751Z,99.90
2018-03-18T06:37:32.026Z,99.90
2018-03-18T06:40:00.354Z,99.90
2018-03-18T06:42:29.386Z,99.90
2018-03-18T06:44:57.673Z,99.90
2018-03-18T06:47:25.948Z,99.90
2018-03-18T06:49:54.231Z,99.90
2018-03-18T06:52:22.505Z,99.90
2018-03-18T06:54:50.838Z,99.50
2018-03-18T06:57:19.064Z,97.90
2018-03-18T06:59:47.992Z,98.30
2018-03-18T07:02:16.353Z,97.40
2018-03-18T07:04:44.635Z,96.90
2018-03-18T07:07:13.696Z,97.80
2018-03-18T07:09:41.961Z,97.80
2018-03-18T07:12:11.264Z,97.40
2018-03-18T07:14:39.642Z,97.10
2018-03-18T07:17:07.957Z,97.00
2018-03-18T07:19:36.219Z,94.80
2018-03-18T07:22:04.508Z,95.10
2018-03-18T07:24:32.772Z,93.50
2018-03-18T07:27:01.086Z,94.10
2018-03-18T07:29:29.351Z,92.20
2018-03-18T07:31:57.633Z,92.80
2018-03-18T07:34:25.935Z,92.40
2018-03-18T07:36:54.204Z,91.70
2018-03-18T07:39:23.290Z,89.60
2018-03-18T07:41:52.325Z,86.30
2018-03-18T07:44:21.434Z,84.70
2018-03-18T07:46:49.715Z,84.70
2018-03-18T07:49:18.004Z,91.60
2018-03-18T07:51:46.285Z,79.50
2018-03-18T07:54:14.599Z,84.00
2018-03-18T07:56:42.868Z,82.70
2018-03-18T07:59:11.160Z,89.30
2018-03-18T08:01:39.514Z,82.20
2018-03-18T08:04:07.803Z,76.00
2018-03-18T08:06:36.865Z,74.60
2018-03-18T08:09:05.136Z,74.50
2018-03-18T08:11:33.433Z,69.30
2018-03-18T08:14:01.723Z,71.50
2018-03-18T08:16:30.011Z,66.90
2018-03-18T08:18:59.056Z,64.20
2018-03-18T08:21:27.380Z,64.10
2018-03-18T08:23:55.661Z,64.90
2018-03-18T08:26:24.019Z,60.60
2018-03-18T08:28:53.066Z,59.60
2018-03-18T08:31:21.361Z,59.80
2018-03-18T08:33:49.619Z,56.50
2018-03-18T08:36:17.906Z,56.70
2018-03-18T08:38:46.198Z,57.80
2018-03-18T08:41:14.486Z,54.50
2018-03-18T08:43:42.783Z,54.50
2018-03-18T08:46:11.165Z,56.60
2018-03-18T08:48:39.548Z,55.60
2018-03-18T08:51:07.810Z,52.80
2018-03-18T08:53:36.101Z,53.60
2018-03-18T08:56:04.358Z,55.30
2018-03-18T08:58:32.836Z,52.00
2018-03-18T09:01:01.112Z,50.70
2018-03-18T09:03:29.388Z,53.90
2018-03-18T09:05:57.653Z,51.90
2018-03-18T09:08:25.936Z,51.90
2018-03-18T09:10:54.204Z,51.70
2018-03-18T09:13:22.504Z,52.60
2018-03-18T09:15:50.770Z,52.40
2018-03-18T09:18:19.136Z,51.70
2018-03-18T09:20:47.403Z,50.50
2018-03-18T09:23:15.684Z,48.50
2018-03-18T09:25:43.963Z,49.30
2018-03-18T09:28:12.281Z,47.10
2018-03-18T09:30:40.571Z,46.60
2018-03-18T09:33:08.829Z,46.10
2018-03-18T09:35:37.225Z,46.10
2018-03-18T09:38:05.598Z,45.60
2018-03-18T09:40:33.876Z,45.50
2018-03-18T09:43:02.148Z,43.70
2018-03-18T09:45:30.435Z,43.90
2018-03-18T09:47:58.724Z,44.20
2018-03-18T09:50:26.982Z,42.80
2018-03-18T09:52:55.252Z,42.60
2018-03-18T09:55:23.514Z,42.00
2018-03-18T09:57:51.814Z,41.20
2018-03-18T10:00:20.092Z,41.70
2018-03-18T10:02:48.384Z,41.70
2018-03-18T10:05:16.652Z,42.00
2018-03-18T10:07:44.928Z,40.10
2018-03-18T10:10:13.264Z,40.20
2018-03-18T10:12:41.520Z,39.50
2018-03-18T10:15:10.672Z,39.00
2018-03-18T10:17:38.925Z,38.90
2018-03-18T10:20:07.537Z,38.30
2018-03-18T10:22:35.785Z,38.10
2018-03-18T10:25:04.060Z,37.20
2018-03-18T10:27:32.308Z,36.80
2018-03-18T10:30:01.353Z,37.50
2018-03-18T10:32:29.623Z,36.90
2018-03-18T10:34:57.919Z,36.80
2018-03-18T10:37:26.184Z,36.10
2018-03-18T10:39:54.485Z,36.20
2018-03-18T10:42:22.849Z,37.60
2018-03-18T10:44:51.105Z,36.40
2018-03-18T10:47:19.411Z,36.70
2018-03-18T10:49:47.677Z,36.70
2018-03-18T10:52:15.957Z,35.30
2018-03-18T10:54:44.236Z,34.90
2018-03-18T10:57:12.501Z,35.30
2018-03-18T10:59:40.776Z,34.50
2018-03-18T11:02:14.852Z,34.50
2018-03-18T11:04:43.910Z,34.30
2018-03-18T11:07:12.174Z,34.40
2018-03-18T11:09:40.423Z,34.60
2018-03-18T11:12:08.697Z,33.80
2018-03-18T11:14:36.958Z,34.50
2018-03-18T11:17:05.999Z,35.00
2018-03-18T11:19:34.265Z,34.90
2018-03-18T11:22:02.549Z,34.60
2018-03-18T11:24:30.831Z,33.30
2018-03-18T11:26:59.088Z,33.40
2018-03-18T11:29:27.380Z,33.90
2018-03-18T11:31:55.652Z,32.90
2018-03-18T11:34:23.917Z,33.60
2018-03-18T11:36:52.217Z,33.50
2018-03-18T11:39:20.455Z,32.30
2018-03-18T11:41:48.771Z,32.40
2018-03-18T11:44:17.028Z,32.10
2018-03-18T11:46:45.302Z,32.00
2018-03-18T11:49:13.561Z,32.30
2018-03-18T11:51:41.829Z,32.40
2018-03-18T11:54:10.080Z,32.90
2018-03-18T11:56:39.149Z,31.80
2018-03-18T11:59:07.405Z,31.90
2018-03-18T12:01:35.677Z,31.70
2018-03-18T12:04:03.950Z,32.30
2018-03-18T12:06:32.279Z,31.90
2018-03-18T12:09:00.495Z,31.20
2018-03-18T12:11:28.767Z,30.90
2018-03-18T12:13:57.707Z,30.10
2018-03-18T12:16:25.982Z,30.80
2018-03-18T12:18:54.258Z,30.90
2018-03-18T12:21:22.508Z,29.90
2018-03-18T12:23:50.785Z,30.30
2018-03-18T12:26:19.470Z,30.20
2018-03-18T12:28:47.761Z,30.00
2018-03-18T12:31:16.018Z,30.10
2018-03-18T12:33:44.275Z,30.40
2018-03-18T12:36:12.545Z,30.70
2018-03-18T12:38:41.581Z,28.30
2018-03-18T12:41:09.837Z,28.30
2018-03-18T12:43:38.109Z,29.90
2018-03-18T12:46:06.368Z,30.80
2018-03-18T12:48:35.530Z,29.90
2018-03-18T12:51:03.776Z,29.90
2018-03-18T12:53:32.097Z,29.30
2018-03-18T12:56:00.360Z,29.00
2018-03-18T12:58:28.740Z,29.50
2018-03-18T13:00:56.999Z,29.80
2018-03-18T13:03:25.280Z,28.60
2018-03-18T13:05:54.357Z,27.80
2018-03-18T13:08:22.669Z,28.80
2018-03-18T13:10:50.922Z,29.30
2018-03-18T13:13:19.203Z,27.10
2018-03-18T13:15:47.485Z,27.70
2018-03-18T13:18:15.775Z,27.50
2018-03-18T13:20:44.043Z,27.50
2018-03-18T13:23:12.315Z,27.40
2018-03-18T13:25:40.583Z,28.30
2018-03-18T13:28:08.864Z,27.40
2018-03-18T13:30:37.115Z,27.80
2018-03-18T13:33:05.389Z,28.10
2018-03-18T13:35:33.666Z,28.30
2018-03-18T13:38:02.722Z,27.10
2018-03-18T13:40:31.000Z,27.00
2018-03-18T13:42:59.313Z,26.50
2018-03-18T13:45:27.586Z,27.00
2018-03-18T13:47:57.263Z,27.10
2018-03-18T13:50:25.529Z,27.00
2018-03-18T13:52:53.806Z,26.90
2018-03-18T13:55:22.187Z,26.00
2018-03-18T13:57:50.441Z,25.50
2018-03-18T14:00:18.716Z,25.30
2018-03-18T14:02:46.976Z,24.60
2018-03-18T14:05:15.254Z,25.10
2018-03-18T14:07:43.512Z,23.50
2018-03-18T14:10:12.565Z,21.10
2018-03-18T14:12:40.830Z,21.00
2018-03-18T14:15:09.225Z,19.90
2018-03-18T14:17:37.495Z,19.20
2018-03-18T14:20:05.815Z,20.10
2018-03-18T14:22:34.095Z,18.60
2018-03-18T14:25:03.124Z,17.80
2018-03-18T14:27:31.449Z,17.70
2018-03-18T14:29:59.803Z,18.20
2018-03-18T14:32:28.084Z,18.10
2018-03-18T14:34:56.469Z,17.30
2018-03-18T14:37:24.761Z,17.20
2018-03-18T14:39:53.024Z,16.80
2018-03-18T14:42:21.304Z,16.80
2018-03-18T14:44:49.584Z,16.80
2018-03-18T14:47:17.865Z,16.10
2018-03-18T14:49:46.130Z,17.80
2018-03-18T14:52:14.409Z,17.10
2018-03-18T14:54:42.888Z,17.50
2018-03-18T14:57:11.136Z,17.60
2018-03-18T14:59:39.544Z,17.20
2018-03-18T15:02:07.814Z,16.70
2018-03-18T15:04:36.107Z,17.50
2018-03-18T15:07:04.357Z,17.40
2018-03-18T15:09:32.648Z,16.90
2018-03-18T15:12:00.904Z,17.80
2018-03-18T15:14:29.296Z,17.30
2018-03-18T15:16:57.565Z,17.20
2018-03-18T15:19:25.848Z,15.40
2018-03-18T15:21:54.812Z,16.30
2018-03-18T15:24:23.077Z,16.70
2018-03-18T15:26:51.512Z,16.30
2018-03-18T15:29:19.816Z,16.20
2018-03-18T15:31:48.860Z,18.30
2018-03-18T15:34:17.118Z,18.00
2018-03-18T15:36:45.417Z,17.20
2018-03-18T15:39:13.715Z,17.10
2018-03-18T15:41:42.004Z,17.10
2018-03-18T15:44:10.264Z,15.90
2018-03-18T15:46:38.552Z,16.30
2018-03-18T15:49:07.036Z,16.30
2018-03-18T15:51:35.288Z,15.80
2018-03-18T15:54:03.621Z,16.60
2018-03-18T15:56:32.854Z,15.90
2018-03-18T15:59:01.151Z,16.10
2018-03-18T16:01:29.416Z,16.60
2018-03-18T16:03:57.692Z,17.00
2018-03-18T16:06:25.966Z,16.80
2018-03-18T16:08:54.241Z,17.30
2018-03-18T16:11:22.515Z,17.00
2018-03-18T16:13:50.812Z,16.90
2018-03-18T16:16:19.490Z,17.10
2018-03-18T16:18:47.782Z,17.60
2018-03-18T16:21:16.105Z,17.90
2018-03-18T16:23:44.302Z,18.30
2018-03-18T16:26:12.576Z,17.60
2018-03-18T16:28:40.895Z,17.90
2018-03-18T16:31:15.701Z,18.10
2018-03-18T16:33:43.947Z,17.50
2018-03-18T16:36:13.129Z,18.60
2018-03-18T16:38:41.479Z,18.60
2018-03-18T16:41:09.743Z,18.90
2018-03-18T16:43:38.014Z,19.20
2018-03-18T16:46:06.275Z,19.70
2018-03-18T16:48:34.590Z,20.20
2018-03-18T16:51:02.866Z,19.80
2018-03-18T16:53:31.137Z,20.20
2018-03-18T16:55:59.813Z,20.00
2018-03-18T16:58:28.089Z,20.10
2018-03-18T17:00:56.378Z,20.20
2018-03-18T17:03:24.628Z,20.90
2018-03-18T17:05:52.903Z,21.50
2018-03-18T17:08:21.177Z,22.50
2018-03-18T17:10:49.595Z,22.50
2018-03-18T17:13:17.857Z,23.20
2018-03-18T17:15:46.103Z,23.70
2018-03-18T17:18:14.380Z,23.90
2018-03-18T17:20:42.719Z,24.40
2018-03-18T17:23:11.108Z,25.10
2018-03-18T17:25:39.804Z,25.40
2018-03-18T17:28:08.077Z,25.80
2018-03-18T17:30:36.432Z,25.90
2018-03-18T17:33:04.744Z,26.30
2018-03-18T17:35:33.780Z,26.40
2018-03-18T17:38:02.053Z,26.40
2018-03-18T17:40:30.317Z,26.80
2018-03-18T17:42:58.583Z,27.10
2018-03-18T17:45:38.753Z,27.40
2018-03-18T17:48:19.010Z,27.50
2018-03-18T17:50:59.089Z,27.60
2018-03-18T17:53:39.269Z,27.70
2018-03-18T17:56:19.374Z,28.20
2018-03-18T17:58:48.399Z,28.10
2018-03-18T18:01:16.677Z,28.10
2018-03-18T18:03:44.934Z,28.60
2018-03-18T18:06:13.236Z,28.60
2018-03-18T18:08:41.499Z,28.50
2018-03-18T18:11:09.893Z,28.60
2018-03-18T18:13:38.278Z,28.60
2018-03-18T18:16:06.652Z,29.10
2018-03-18T18:18:34.948Z,28.90
2018-03-18T18:21:03.215Z,29.00
2018-03-18T18:23:31.478Z,29.40
2018-03-18T18:25:59.740Z,29.20
2018-03-18T18:28:28.091Z,30.90
2018-03-18T18:30:56.315Z,30.20
2018-03-18T18:33:24.585Z,30.00
2018-03-18T18:35:52.872Z,30.00
2018-03-18T18:38:21.152Z,30.10
2018-03-18T18:40:49.529Z,30.10
2018-03-18T18:43:17.817Z,29.90
2018-03-18T18:45:46.082Z,30.10
2018-03-18T18:48:14.333Z,30.40
2018-03-18T18:50:42.738Z,30.70
2018-03-18T18:53:10.999Z,30.50
2018-03-18T18:55:39.595Z,30.70
2018-03-18T18:58:07.855Z,31.10
2018-03-18T19:00:36.133Z,30.80
2018-03-18T19:03:04.437Z,31.40
2018-03-18T19:05:32.731Z,31.30
2018-03-18T19:08:01.083Z,31.20
2018-03-18T19:10:29.368Z,31.50
2018-03-18T19:12:57.644Z,31.60
2018-03-18T19:15:25.918Z,31.80
2018-03-18T19:17:54.202Z,31.40
2018-03-18T19:20:22.468Z,31.50
2018-03-18T19:22:50.746Z,31.80
2018-03-18T19:25:19.024Z,31.10
2018-03-18T19:27:47.398Z,31.30
2018-03-18T19:30:15.674Z,31.30
2018-03-18T19:32:43.952Z,31.70
2018-03-18T19:35:12.340Z,31.90
2018-03-18T19:37:40.625Z,32.40
2018-03-18T19:40:08.892Z,32.50
2018-03-18T19:42:37.157Z,32.20
2018-03-18T19:45:05.469Z,32.20
2018-03-18T19:47:33.737Z,31.90
2018-03-18T19:50:02.104Z,32.10
2018-03-18T19:52:30.381Z,31.80
2018-03-18T19:54:58.645Z,31.90
2018-03-18T19:57:26.933Z,31.90
2018-03-18T19:59:55.201Z,32.10
2018-03-18T20:02:23.488Z,33.00
2018-03-18T20:04:51.873Z,32.70
2018-03-18T20:07:20.132Z,33.10
2018-03-18T20:09:48.410Z,33.30
2018-03-18T20:12:16.683Z,33.20
2018-03-18T20:14:44.950Z,33.70
2018-03-18T20:17:13.223Z,33.80
2018-03-18T20:19:41.479Z,34.20
2018-03-18T20:22:09.771Z,34.40
2018-03-18T20:24:38.039Z,34.30
2018-03-18T20:27:06.312Z,34.80
2018-03-18T20:29:35.356Z,35.70
2018-03-18T20:32:03.633Z,35.70
2018-03-18T20:34:31.906Z,35.90
2018-03-18T20:37:00.176Z,36.00
2018-03-18T20:39:28.568Z,35.90
2018-03-18T20:41:56.832Z,36.70
2018-03-18T20:44:25.128Z,36.40
2018-03-18T20:46:53.386Z,36.80
2018-03-18T20:49:21.773Z,36.60
2018-03-18T20:51:50.037Z,36.60
2018-03-18T20:54:18.366Z,36.50
2018-03-18T20:56:46.712Z,36.60
2018-03-18T20:59:14.975Z,36.50
2018-03-18T21:01:43.248Z,37.00
2018-03-18T21:04:11.516Z,37.00
2018-03-18T21:06:39.803Z,36.70
2018-03-18T21:09:08.068Z,36.50
2018-03-18T21:11:36.353Z,36.50
2018-03-18T21:14:04.625Z,36.70
2018-03-18T21:16:32.932Z,37.10
2018-03-18T21:19:01.210Z,36.80
2018-03-18T21:21:30.376Z,37.30
2018-03-18T21:23:58.649Z,37.30
2018-03-18T21:26:26.908Z,37.50
2018-03-18T21:28:55.205Z,37.90
2018-03-18T21:31:23.474Z,37.50
2018-03-18T21:33:51.747Z,37.70
2018-03-18T21:36:20.009Z,37.60
2018-03-18T21:38:48.292Z,38.10
2018-03-18T21:41:16.638Z,44.60
2018-03-18T21:43:44.921Z,56.40
2018-03-18T21:46:13.282Z,53.10
2018-03-18T21:48:41.575Z,61.90
2018-03-18T21:51:09.854Z,73.00
2018-03-18T21:53:38.130Z,48.20
2018-03-18T21:56:06.409Z,47.00
2018-03-18T21:58:34.769Z,51.30
2018-03-18T22:01:03.068Z,46.70
2018-03-18T22:03:31.327Z,45.50
2018-03-18T22:06:00.899Z,46.00
2018-03-18T22:08:29.175Z,45.40
2018-03-18T22:10:57.464Z,46.30
2018-03-18T22:13:25.720Z,45.90
2018-03-18T22:15:54.007Z,47.30
2018-03-18T22:18:22.272Z,47.10
2018-03-18T22:20:50.573Z,47.00
2018-03-18T22:23:18.852Z,46.00
2018-03-18T22:25:47.128Z,47.10
2018-03-18T22:28:15.439Z,85.60
2018-03-18T22:30:43.700Z,99.90
2018-03-18T22:33:11.989Z,78.00
2018-03-18T22:35:40.253Z,73.80
2018-03-18T22:38:08.532Z,98.00
2018-03-18T22:40:36.808Z,76.60
2018-03-18T22:43:05.201Z,83.10
2018-03-18T22:45:33.465Z,82.40
2018-03-18T22:48:01.747Z,74.20
2018-03-18T22:50:30.031Z,62.10
2018-03-18T22:52:58.332Z,62.50
2018-03-18T22:55:27.375Z,54.00
2018-03-18T22:57:55.636Z,54.00
2018-03-18T23:00:23.916Z,60.30
2018-03-18T23:02:52.182Z,62.40
2018-03-18T23:05:20.476Z,77.20
2018-03-18T23:07:48.743Z,53.20
2018-03-18T23:10:17.025Z,65.20
2018-03-18T23:12:45.288Z,58.70
2018-03-18T23:15:13.573Z,56.60
2018-03-18T23:17:41.843Z,64.60
2018-03-18T23:20:10.687Z,57.90
2018-03-18T23:22:38.949Z,83.00
2018-03-18T23:25:07.233Z,90.00
2018-03-18T23:27:35.487Z,90.10
2018-03-18T23:30:03.781Z,77.20
2018-03-18T23:32:32.041Z,77.90
2018-03-18T23:35:00.324Z,93.70
2018-03-18T23:37:28.595Z,63.00
2018-03-18T23:39:56.885Z,90.10
2018-03-18T23:42:25.132Z,74.30
2018-03-18T23:44:53.427Z,55.60
2018-03-18T23:47:21.684Z,57.70
2018-03-18T23:49:49.962Z,72.60
2018-03-18T23:52:18.274Z,58.50
2018-03-18T23:54:46.528Z,57.50
2018-03-18T23:57:14.813Z,68.80
2018-03-18T23:59:43.070Z,99.90
